createdAt,value
2018-08-03T00:01:02.554Z,77.900002
2018-08-03T00:06:04.967Z,77.900002
2018-08-03T00:11:07.117Z,77.699997
2018-08-03T00:16:09.318Z,77.699997
2018-08-03T00:21:11.712Z,77.900002
2018-08-03T00:26:13.924Z,78.099998
2018-08-03T00:31:16.371Z,78.099998
2018-08-03T00:36:18.603Z,79
2018-08-03T00:41:20.870Z,78.599998
2018-08-03T00:46:23.251Z,79
2018-08-03T00:51:26.093Z,79.099998
2018-08-03T00:56:27.780Z,79.300003
2018-08-03T01:01:30.004Z,79.699997
2018-08-03T01:06:32.342Z,80.099998
2018-08-03T01:11:34.632Z,80.199997
2018-08-03T01:16:38.305Z,80.699997
2018-08-03T01:21:39.313Z,81.099998
2018-08-03T01:26:41.616Z,81.300003
2018-08-03T01:31:43.806Z,82
2018-08-03T01:36:46.168Z,82.099998
2018-08-03T01:41:48.531Z,82.199997
2018-08-03T01:51:52.988Z,82
2018-08-03T01:56:55.346Z,81.900002
2018-08-03T02:01:57.637Z,82.199997
2018-08-03T02:06:59.882Z,82.300003
2018-08-03T02:12:02.384Z,82.300003
2018-08-03T02:17:04.644Z,82.699997
2018-08-03T02:22:07.069Z,82.699997
2018-08-03T02:27:09.165Z,83
2018-08-03T02:32:11.385Z,83
2018-08-03T02:37:13.741Z,83.599998
2018-08-03T02:42:16.002Z,83.800003
2018-08-03T02:47:18.272Z,83.900002
2018-08-03T02:52:20.589Z,84.400002
2018-08-03T02:57:22.898Z,84.699997
2018-08-03T03:02:25.136Z,84.300003
2018-08-03T03:07:27.612Z,84.5
2018-08-03T03:12:29.689Z,84.800003
2018-08-03T03:17:32.019Z,85
2018-08-03T03:22:34.401Z,85.199997
2018-08-03T03:27:36.615Z,85.699997
2018-08-03T03:32:38.989Z,86
2018-08-03T03:37:41.235Z,86.400002
2018-08-03T03:42:43.904Z,86.800003
2018-08-03T03:47:45.893Z,87.300003
2018-08-03T03:52:48.078Z,87.300003
2018-08-03T03:57:50.404Z,87.599998
2018-08-03T04:02:52.606Z,86.800003
2018-08-03T04:07:54.959Z,86.900002
2018-08-03T04:12:57.345Z,86.800003
2018-08-03T04:17:59.523Z,86.900002
2018-08-03T04:23:01.880Z,88
2018-08-03T04:28:04.105Z,88.300003
2018-08-03T04:33:06.388Z,88.5
2018-08-03T04:38:08.764Z,88.300003
2018-08-03T04:43:11.080Z,88.300003
2018-08-03T04:48:13.349Z,88.400002
2018-08-03T04:53:15.561Z,89
2018-08-03T04:58:17.971Z,88.599998
2018-08-03T05:03:20.241Z,89
2018-08-03T05:08:22.479Z,89.099998
2018-08-03T05:13:24.754Z,90.800003
2018-08-03T05:18:27.070Z,90.400002
2018-08-03T05:23:30.552Z,90.900002
2018-08-03T05:28:31.639Z,90.800003
2018-08-03T05:33:33.968Z,90.699997
2018-08-03T05:38:36.362Z,90.099998
2018-08-03T05:43:38.544Z,91.800003
2018-08-03T05:48:40.927Z,91
2018-08-03T05:53:43.188Z,90.800003
2018-08-03T05:58:45.531Z,90.5
2018-08-03T06:03:47.673Z,90.099998
2018-08-03T06:08:49.977Z,90.199997
2018-08-03T06:13:52.333Z,85.699997
2018-08-03T06:18:54.695Z,85.199997
2018-08-03T06:28:59.211Z,81.900002
2018-08-03T06:34:01.446Z,77
2018-08-03T06:39:03.956Z,74.400002
2018-08-03T06:44:06.069Z,68
2018-08-03T06:49:08.310Z,65.5
2018-08-03T06:54:10.660Z,64.900002
2018-08-03T06:59:12.925Z,62.200001
2018-08-03T07:04:15.230Z,60.400002
2018-08-03T07:09:17.531Z,59.5
2018-08-03T07:14:19.883Z,57.599998
2018-08-03T07:19:22.258Z,54.400002
2018-08-03T07:24:24.451Z,54.200001
2018-08-03T07:29:26.717Z,50.900002
2018-08-03T07:34:29.059Z,52.5
2018-08-03T07:39:31.272Z,51.200001
2018-08-03T07:44:33.576Z,49.299999
2018-08-03T07:49:35.988Z,47.5
2018-08-03T07:54:38.326Z,49.599998
2018-08-03T07:59:40.559Z,46.599998
2018-08-03T08:04:42.760Z,47
2018-08-03T08:09:45.203Z,46.900002
2018-08-03T08:14:47.407Z,43.200001
2018-08-03T08:19:49.661Z,44.400002
2018-08-03T08:24:51.984Z,43.400002
2018-08-03T08:29:54.193Z,43.5
2018-08-03T08:34:56.596Z,41.599998
2018-08-03T08:39:58.858Z,41.799999
2018-08-03T08:45:01.141Z,40.900002
2018-08-03T08:50:03.472Z,38.799999
2018-08-03T08:55:05.774Z,37.900002
2018-08-03T09:00:07.983Z,38.400002
2018-08-03T09:05:10.255Z,36.599998
2018-08-03T09:10:12.575Z,37.299999
2018-08-03T09:15:14.917Z,35.200001
2018-08-03T09:20:17.276Z,37
2018-08-03T09:25:19.480Z,35.200001
2018-08-03T09:30:23.052Z,36.200001
2018-08-03T09:35:24.103Z,34.200001
2018-08-03T09:40:26.478Z,36.299999
2018-08-03T09:45:28.680Z,36
2018-08-03T09:50:30.879Z,34.5
2018-08-03T09:55:33.339Z,34.599998
2018-08-03T10:00:35.665Z,34.099998
2018-08-03T10:10:40.096Z,31.5
2018-08-03T10:15:42.604Z,32
2018-08-03T10:20:44.729Z,31.6
2018-08-03T10:25:47.022Z,31.9
2018-08-03T10:30:49.262Z,29.1
2018-08-03T10:35:51.621Z,29.299999
2018-08-03T10:40:53.981Z,30
2018-08-03T10:45:56.259Z,28.200001
2018-08-03T10:50:58.462Z,28
2018-08-03T10:56:00.830Z,27.700001
2018-08-03T11:01:03.301Z,25.299999
2018-08-03T11:06:05.411Z,25.5
2018-08-03T11:11:07.628Z,24.6
2018-08-03T11:16:09.993Z,25.799999
2018-08-03T11:21:16.437Z,27
2018-08-03T11:26:14.714Z,27.4
2018-08-03T11:31:16.882Z,24.799999
2018-08-03T11:36:19.151Z,23.1
2018-08-03T11:41:21.450Z,23.700001
2018-08-03T11:46:23.695Z,25.299999
2018-08-03T11:51:26.101Z,25.4
2018-08-03T11:56:28.308Z,22.6
2018-08-03T12:01:30.601Z,25.299999
2018-08-03T12:06:33.625Z,22
2018-08-03T12:11:35.209Z,20.700001
2018-08-03T12:16:38.499Z,21.6
2018-08-03T12:21:39.900Z,20
2018-08-03T12:26:42.121Z,20.799999
2018-08-03T12:31:44.328Z,21.1
2018-08-03T12:36:46.662Z,20.700001
2018-08-03T12:41:49.053Z,20.5
2018-08-03T12:46:51.460Z,21.700001
2018-08-03T12:51:53.654Z,22.700001
2018-08-03T12:56:55.891Z,21.4
2018-08-03T13:01:58.157Z,21
2018-08-03T13:07:00.370Z,21.5
2018-08-03T13:12:03.871Z,21.299999
2018-08-03T13:17:04.968Z,20.4
2018-08-03T13:22:07.327Z,19.4
2018-08-03T13:27:09.589Z,21.200001
2018-08-03T13:32:11.941Z,22.9
2018-08-03T13:37:14.265Z,23.5
2018-08-03T13:42:16.512Z,21.799999
2018-08-03T13:47:18.810Z,20.200001
2018-08-03T13:52:21.115Z,20.4
2018-08-03T13:57:23.414Z,19.4
2018-08-03T14:02:25.783Z,19.5
2018-08-03T14:07:27.993Z,21.799999
2018-08-03T14:12:30.380Z,22.9
2018-08-03T14:17:32.577Z,22.1
2018-08-03T14:22:34.878Z,22.200001
2018-08-03T14:27:37.197Z,21.5
2018-08-03T14:32:39.447Z,22.299999
2018-08-03T14:37:41.745Z,21.4
2018-08-03T14:42:44.091Z,21.5
2018-08-03T14:47:46.521Z,23.200001
2018-08-03T14:52:48.636Z,22.799999
2018-08-03T14:57:50.895Z,21.700001
2018-08-03T15:02:53.222Z,24.700001
2018-08-03T15:07:55.573Z,24.1
2018-08-03T15:12:57.775Z,23.299999
2018-08-03T15:18:00.122Z,23.700001
2018-08-03T15:23:02.455Z,23.5
2018-08-03T15:28:04.786Z,26.200001
2018-08-03T15:33:07.087Z,24.4
2018-08-03T15:38:09.282Z,25.1
2018-08-03T15:43:11.588Z,26.799999
2018-08-03T15:48:13.848Z,27.799999
2018-08-03T15:53:16.154Z,27.6
2018-08-03T15:58:18.575Z,27.200001
2018-08-03T16:03:20.761Z,27.700001
2018-08-03T16:08:22.991Z,28.200001
2018-08-03T16:13:25.390Z,28.200001
2018-08-03T16:18:27.683Z,29.6
2018-08-03T16:23:29.863Z,29
2018-08-03T16:28:33.329Z,30.700001
2018-08-03T16:33:34.568Z,31
2018-08-03T16:38:36.895Z,30.6
2018-08-03T16:43:39.287Z,32.700001
2018-08-03T16:48:41.545Z,32.599998
2018-08-03T16:53:43.776Z,32.900002
2018-08-03T16:58:46.089Z,33.299999
2018-08-03T17:03:48.232Z,33.400002
2018-08-03T17:08:50.663Z,33.799999
2018-08-03T17:13:52.946Z,34.5
2018-08-03T17:18:55.235Z,35
2018-08-03T17:23:57.507Z,35.200001
2018-08-03T17:28:59.833Z,36.599998
2018-08-03T17:34:02.054Z,35.900002
2018-08-03T17:39:04.331Z,36.900002
2018-08-03T17:44:06.679Z,37.799999
2018-08-03T17:49:09.003Z,36.799999
2018-08-03T17:54:11.384Z,38.200001
2018-08-03T17:59:13.536Z,38.200001
2018-08-03T18:04:15.844Z,39.099998
2018-08-03T18:09:18.165Z,39.299999
2018-08-03T18:14:20.543Z,40.599998
2018-08-03T18:19:22.771Z,41.099998
2018-08-03T18:24:25.121Z,41.400002
2018-08-03T18:29:27.344Z,41.700001
2018-08-03T18:34:29.614Z,42.799999
2018-08-03T18:39:31.868Z,44
2018-08-03T18:44:34.298Z,43.900002
2018-08-03T18:49:36.569Z,43.299999
2018-08-03T18:54:38.721Z,43.5
2018-08-03T18:59:41.072Z,44.400002
2018-08-03T19:09:45.699Z,45.599998
2018-08-03T19:14:48.033Z,46.299999
2018-08-03T19:19:50.423Z,46.900002
2018-08-03T19:24:52.553Z,47.099998
2018-08-03T19:29:54.878Z,48.599998
2018-08-03T19:34:57.231Z,49
2018-08-03T19:40:01.393Z,49.700001
2018-08-03T19:45:03.004Z,50.700001
2018-08-03T19:50:04.253Z,52.099998
2018-08-03T19:55:06.390Z,53.200001
2018-08-03T20:00:10.385Z,53.799999
2018-08-03T20:05:11.058Z,54.900002
2018-08-03T20:10:13.254Z,55.599998
2018-08-03T20:15:15.530Z,56.700001
2018-08-03T20:20:17.825Z,57.200001
2018-08-03T20:25:20.095Z,57.799999
2018-08-03T20:30:22.349Z,58.799999
2018-08-03T20:35:24.662Z,58.799999
2018-08-03T20:40:26.981Z,60.700001
2018-08-03T20:45:29.332Z,60
2018-08-03T20:50:31.610Z,60.799999
2018-08-03T20:55:33.897Z,61.200001
2018-08-03T21:00:36.379Z,61.599998
2018-08-03T21:05:38.449Z,61.700001
2018-08-03T21:10:40.801Z,62.200001
2018-08-03T21:15:43.041Z,63.299999
2018-08-03T21:20:45.336Z,62.900002
2018-08-03T21:25:47.585Z,64.400002
2018-08-03T21:30:49.956Z,65
2018-08-03T21:35:52.296Z,65.5
2018-08-03T21:40:54.534Z,65.699997
2018-08-03T21:45:56.742Z,66
2018-08-03T21:50:59.079Z,66.5
2018-08-03T21:56:01.337Z,67
2018-08-03T22:01:03.691Z,67.300003
2018-08-03T22:06:05.972Z,67.900002
2018-08-03T22:11:08.313Z,68.5
2018-08-03T22:16:10.572Z,69.199997
2018-08-03T22:21:12.863Z,69.5
2018-08-03T22:26:15.158Z,70.099998
2018-08-03T22:31:17.459Z,70.400002
2018-08-03T22:36:19.778Z,70.800003
2018-08-03T22:41:22.040Z,71.300003
2018-08-03T22:46:24.282Z,71.900002
2018-08-03T22:51:28.296Z,72.599998
2018-08-03T22:56:28.887Z,72.699997
2018-08-03T23:01:31.386Z,73.5
2018-08-03T23:06:33.620Z,74.400002
2018-08-03T23:11:35.870Z,74.599998
2018-08-03T23:16:38.106Z,75
2018-08-03T23:21:40.475Z,75.5
2018-08-03T23:26:42.738Z,75.699997
2018-08-03T23:31:44.987Z,75.699997
2018-08-03T23:36:47.179Z,75.5
2018-08-03T23:41:49.589Z,75.800003
2018-08-03T23:46:51.833Z,75.800003
2018-08-03T23:51:54.152Z,76.300003
2018-08-03T23:56:56.685Z,76.900002
